Terminal Aerodrome Forecast
Issued by NWS

Home | Current Version | Previous Version | Graphics & Text | Print | Product List | Glossary On
Versions: 1 2 3 4 5 6 7 8 9 10 11 12 13 14 15 16 17 18 19
000
FTUS43 KMPX 250446 AAA
TAFAXN
TAF AMD
KAXN 250446Z 2505/2524 31011KT 5SM BR BKN004
     FM251400 35011KT P6SM OVC008
     FM251600 36011KT P6SM OVC012
     FM251800 36011KT P6SM OVC025
     FM252300 01014G22KT 4SM -SHRA BR OVC008=

USA.gov is the U.S. government's official web portal to all federal, state and local government web resources and services.